Aviation Digital Data Service (ADDS)

Output produced by METARs form (0433 UTC 14 December 2017)
found at http://aviationweather.gov/adds/metars/
 
KLYH 132321Z 1400/1424 21008KT P6SM BKN060 
     FM140400 22009KT P6SM BKN120 
     FM141300 26009G17KT P6SM SCT250 
     FM142100 29005KT P6SM SCT250